createdAt,value
2022-07-29T03:35:09.114Z,64.06
2022-07-29T03:40:13.831Z,64.06
2022-07-29T03:45:18.415Z,62.94
2022-07-29T03:50:20.586Z,62.94
2022-07-29T03:55:22.673Z,63.17
2022-07-29T04:00:24.824Z,63.17
2022-07-29T04:05:26.707Z,65.19
2022-07-29T04:10:32.324Z,65.26
2022-07-29T04:15:37.440Z,65.26
2022-07-29T04:20:39.311Z,62.96
2022-07-29T04:25:41.497Z,62.96
2022-07-29T04:30:43.386Z,63.95
2022-07-29T04:40:51.458Z,65.17
2022-07-29T04:45:55.767Z,65.17
2022-07-29T04:50:58.920Z,65.07
2022-07-29T04:56:00.696Z,65.07
2022-07-29T05:01:02.487Z,65.25
2022-07-29T05:06:04.392Z,65.25
2022-07-29T05:16:12.258Z,61.73
2022-07-29T05:21:14.454Z,61.92
2022-07-29T05:26:16.261Z,59.62
2022-07-29T05:31:18.136Z,59.62
2022-07-29T05:36:20.259Z,58.59
2022-07-29T05:41:21.962Z,58.59
2022-07-29T05:46:23.844Z,58.73
2022-07-29T05:51:26.438Z,58.73
2022-07-29T05:56:28.287Z,56.09
2022-07-29T06:01:30.194Z,56.09
2022-07-29T06:06:32.072Z,55.33
2022-07-29T06:11:33.858Z,55.33
2022-07-29T06:16:37.669Z,51.38
2022-07-29T06:21:42.551Z,51.38
2022-07-29T06:26:44.263Z,52.92
2022-07-29T06:31:46.176Z,52.92
2022-07-29T06:36:49.009Z,48.98
2022-07-29T06:41:52.118Z,48.98
2022-07-29T06:46:53.930Z,49.69
2022-07-29T06:51:55.651Z,48.63
2022-07-29T06:56:57.747Z,48.63
2022-07-29T07:01:59.657Z,47.22
2022-07-29T07:07:01.541Z,47.22
2022-07-29T07:12:03.610Z,47.25
2022-07-29T07:17:05.504Z,47.25
2022-07-29T07:22:07.514Z,45.68
2022-07-29T07:27:09.322Z,45.68
2022-07-29T07:32:11.204Z,39.7
2022-07-29T07:37:13.359Z,39.7
2022-07-29T07:42:15.069Z,36.55
2022-07-29T07:47:18.603Z,36.55
2022-07-29T07:52:23.252Z,35.96
2022-07-29T07:57:25.013Z,35.96
2022-07-29T08:02:26.998Z,34.4
2022-07-29T08:07:28.863Z,33.03
2022-07-29T08:12:30.690Z,33.03
2022-07-29T08:17:35.881Z,31.83
2022-07-29T08:22:37.538Z,31.83
2022-07-29T08:27:44.479Z,30.38
2022-07-29T08:37:54.203Z,30.44
2022-07-29T08:42:55.945Z,30.44
2022-07-29T08:47:57.743Z,30.6
2022-07-29T08:53:00.499Z,30.6
2022-07-29T08:58:02.309Z,30.54
2022-07-29T09:03:05.167Z,30.54
2022-07-29T09:08:07.090Z,29.15
2022-07-29T09:13:08.985Z,29.15
2022-07-29T09:28:22.427Z,26.79
2022-07-29T09:38:29.731Z,26.41
2022-07-29T09:43:31.427Z,26.16
2022-07-29T09:48:33.119Z,26.16
2022-07-29T09:53:36.405Z,24.54
2022-07-29T09:58:39.033Z,24.54
2022-07-29T10:08:46.862Z,24.22
2022-07-29T10:13:48.897Z,23.2
2022-07-29T10:18:51.046Z,23.2
2022-07-29T10:29:00.925Z,21.79
2022-07-29T10:34:06.010Z,23.88
2022-07-29T10:44:19.055Z,22.96
2022-07-29T10:49:26.072Z,23.04
2022-07-29T10:54:37.324Z,23.04
2022-07-29T10:59:45.513Z,21.61
2022-07-29T11:15:08.681Z,24.01
2022-07-29T11:40:42.936Z,26.35
2022-07-29T11:45:47.024Z,23.28
2022-07-29T11:50:49.947Z,23.28
2022-07-29T11:55:55.716Z,25.02
2022-07-29T12:11:16.268Z,23.97
2022-07-29T12:21:26.170Z,23.41
2022-07-29T12:26:30.470Z,21.8
2022-07-29T12:36:43.356Z,19.25
2022-07-29T12:41:45.440Z,21.28
2022-07-29T12:51:52.502Z,18.44
2022-07-29T12:56:58.900Z,18.44
2022-07-29T13:02:01.562Z,18.5
2022-07-29T13:07:05.127Z,18.5
2022-07-29T13:12:08.172Z,19.27
2022-07-29T13:17:10.999Z,19.27
2022-07-29T13:22:13.564Z,21.13
2022-07-29T13:27:15.953Z,21.13
2022-07-29T13:32:17.722Z,20.42
2022-07-29T13:37:20.040Z,20.42
2022-07-29T13:42:21.827Z,19.9
2022-07-29T13:52:29.455Z,21.95
2022-07-29T13:57:31.413Z,21.5
2022-07-29T14:02:33.223Z,21.5
2022-07-29T14:07:35.087Z,23.75
2022-07-29T14:12:36.775Z,23.75
2022-07-29T14:17:38.375Z,21.4
2022-07-29T14:27:46.182Z,20.72
2022-07-29T14:32:47.919Z,20.72
2022-07-29T14:37:49.657Z,22.16
2022-07-29T14:42:51.516Z,22.16
2022-07-29T14:47:57.649Z,18.86
2022-07-29T14:53:00.234Z,18.86
2022-07-29T15:03:11.739Z,21.79
2022-07-29T15:08:18.772Z,21.79
2022-07-29T15:13:20.463Z,24.54
2022-07-29T15:18:26.027Z,24.54
2022-07-29T15:23:27.978Z,24.48
2022-07-29T15:28:29.797Z,24.48
2022-07-29T15:33:31.899Z,25.33
2022-07-29T15:38:33.672Z,25.33
2022-07-29T15:43:35.499Z,22.2
2022-07-29T15:48:38.669Z,22.2
2022-07-29T15:53:40.761Z,19.3
2022-07-29T15:58:42.524Z,19.3
2022-07-29T16:03:46.698Z,21.03
2022-07-29T16:08:48.708Z,21.03
2022-07-29T16:13:51.437Z,24.18
2022-07-29T16:18:53.403Z,25.78
2022-07-29T16:23:55.311Z,25.78
2022-07-29T16:28:57.475Z,26.84
2022-07-29T16:33:59.942Z,26.84
2022-07-29T16:39:02.012Z,27.78
2022-07-29T16:44:04.213Z,27.78
2022-07-29T16:49:06.520Z,30.41
2022-07-29T16:54:08.539Z,30.41
2022-07-29T16:59:10.279Z,31.31
2022-07-29T17:04:12.079Z,31.31
2022-07-29T17:09:13.771Z,32.27
2022-07-29T17:14:15.458Z,32.27
2022-07-29T17:19:23.838Z,31.91
2022-07-29T17:24:25.489Z,32.51
2022-07-29T17:29:27.276Z,32.51
2022-07-29T17:34:29.066Z,35.25
2022-07-29T17:39:30.903Z,35.25
2022-07-29T17:44:36.669Z,37.16
2022-07-29T17:49:38.338Z,37.16
2022-07-29T17:54:39.984Z,38.77
2022-07-29T17:59:41.794Z,38.77
2022-07-29T18:04:43.770Z,40.03
2022-07-29T18:09:45.596Z,40.03
2022-07-29T18:14:47.374Z,40.67
2022-07-29T18:19:49.172Z,40.67
2022-07-29T18:24:50.845Z,41.51
2022-07-29T18:29:52.641Z,41.51
2022-07-29T18:34:54.423Z,43.55
2022-07-29T18:39:59.842Z,44.25
2022-07-29T18:45:04.196Z,44.25
2022-07-29T18:50:15.344Z,44.31
2022-07-29T18:55:17.377Z,44.31
2022-07-29T19:00:19.090Z,43.97
2022-07-29T19:05:22.582Z,43.97
2022-07-29T19:10:24.643Z,44.63
2022-07-29T19:15:26.555Z,44.63
2022-07-29T19:20:28.318Z,46.87
2022-07-29T19:25:30.346Z,46.87
2022-07-29T19:30:36.621Z,48.62
2022-07-29T19:35:38.397Z,48.62
2022-07-29T19:40:40.310Z,50.19
2022-07-29T19:45:42.106Z,50.19
2022-07-29T19:50:43.995Z,48.78
2022-07-29T19:55:47.245Z,50.49
2022-07-29T20:00:49.104Z,50.49
2022-07-29T20:05:50.946Z,49.59
2022-07-29T20:10:52.911Z,49.59
2022-07-29T20:15:54.805Z,50.22
2022-07-29T20:20:56.917Z,50.22
2022-07-29T20:25:58.873Z,49.75
2022-07-29T20:31:00.860Z,49.75
2022-07-29T20:36:03.199Z,49.5
2022-07-29T20:41:04.847Z,49.5
2022-07-29T20:46:06.611Z,49.68
2022-07-29T20:51:08.649Z,49.68
2022-07-29T20:56:10.440Z,49.68
2022-07-29T21:01:12.813Z,49.68
2022-07-29T21:06:14.716Z,49.68
2022-07-29T21:11:16.607Z,49.68
2022-07-29T21:16:23.166Z,49.68
2022-07-29T21:21:25.056Z,49.68
2022-07-29T21:26:26.809Z,49.68
2022-07-29T21:31:30.390Z,49.68
2022-07-29T21:41:37.704Z,49.68
